sensor_id;sensor_type;location;lat;lon;timestamp;P1;durP1;ratioP1;P2;durP2;ratioP2
3726;SDS011;1879;45.876;12.300;2023-03-09T00:00:57;26.90;;;23.73;;
3726;SDS011;1879;45.876;12.300;2023-03-09T00:03:24;27.40;;;23.80;;
3726;SDS011;1879;45.876;12.300;2023-03-09T00:05:52;28.13;;;25.10;;
3726;SDS011;1879;45.876;12.300;2023-03-09T00:08:21;26.87;;;22.27;;
3726;SDS011;1879;45.876;12.300;2023-03-09T00:10:48;28.27;;;24.23;;
3726;SDS011;1879;45.876;12.300;2023-03-09T00:13:17;25.07;;;22.30;;
3726;SDS011;1879;45.876;12.300;2023-03-09T00:15:44;26.70;;;23.47;;
3726;SDS011;1879;45.876;12.300;2023-03-09T00:18:15;29.57;;;22.70;;
3726;SDS011;1879;45.876;12.300;2023-03-09T00:20:42;27.93;;;23.57;;
3726;SDS011;1879;45.876;12.300;2023-03-09T00:23:09;28.90;;;24.10;;
3726;SDS011;1879;45.876;12.300;2023-03-09T00:25:38;26.00;;;22.10;;
3726;SDS011;1879;45.876;12.300;2023-03-09T00:28:05;29.30;;;25.50;;
3726;SDS011;1879;45.876;12.300;2023-03-09T00:30:33;25.73;;;23.07;;
3726;SDS011;1879;45.876;12.300;2023-03-09T00:33:02;27.20;;;24.17;;
3726;SDS011;1879;45.876;12.300;2023-03-09T00:35:29;27.33;;;24.33;;
3726;SDS011;1879;45.876;12.300;2023-03-09T00:37:56;30.43;;;23.60;;
3726;SDS011;1879;45.876;12.300;2023-03-09T00:40:23;27.93;;;24.33;;
3726;SDS011;1879;45.876;12.300;2023-03-09T00:42:52;27.77;;;24.90;;
3726;SDS011;1879;45.876;12.300;2023-03-09T00:45:19;27.03;;;22.30;;
3726;SDS011;1879;45.876;12.300;2023-03-09T00:47:48;27.27;;;23.80;;
3726;SDS011;1879;45.876;12.300;2023-03-09T00:50:15;28.03;;;25.10;;
3726;SDS011;1879;45.876;12.300;2023-03-09T00:52:42;25.33;;;22.63;;
3726;SDS011;1879;45.876;12.300;2023-03-09T00:55:10;25.17;;;22.50;;
3726;SDS011;1879;45.876;12.300;2023-03-09T00:57:37;24.87;;;22.27;;
3726;SDS011;1879;45.876;12.300;2023-03-09T01:00:06;23.97;;;21.57;;
3726;SDS011;1879;45.876;12.300;2023-03-09T01:02:35;23.23;;;20.80;;
3726;SDS011;1879;45.876;12.300;2023-03-09T01:05:03;28.47;;;21.93;;
3726;SDS011;1879;45.876;12.300;2023-03-09T01:07:30;25.17;;;22.63;;
3726;SDS011;1879;45.876;12.300;2023-03-09T01:09:59;30.70;;;24.70;;
3726;SDS011;1879;45.876;12.300;2023-03-09T01:12:26;26.10;;;22.07;;
3726;SDS011;1879;45.876;12.300;2023-03-09T01:14:53;28.70;;;23.87;;
3726;SDS011;1879;45.876;12.300;2023-03-09T01:17:22;27.03;;;24.10;;
3726;SDS011;1879;45.876;12.300;2023-03-09T01:19:50;26.53;;;21.87;;
3726;SDS011;1879;45.876;12.300;2023-03-09T01:22:17;28.23;;;21.97;;
3726;SDS011;1879;45.876;12.300;2023-03-09T01:24:44;28.83;;;23.20;;
3726;SDS011;1879;45.876;12.300;2023-03-09T01:27:11;29.43;;;22.13;;
3726;SDS011;1879;45.876;12.300;2023-03-09T01:29:38;27.33;;;23.10;;
3726;SDS011;1879;45.876;12.300;2023-03-09T01:32:05;27.20;;;22.87;;
3726;SDS011;1879;45.876;12.300;2023-03-09T01:34:33;29.90;;;25.67;;
3726;SDS011;1879;45.876;12.300;2023-03-09T01:37:00;26.47;;;22.43;;
3726;SDS011;1879;45.876;12.300;2023-03-09T01:39:28;26.10;;;23.23;;
3726;SDS011;1879;45.876;12.300;2023-03-09T01:41:55;24.83;;;22.20;;
3726;SDS011;1879;45.876;12.300;2023-03-09T01:44:23;25.57;;;23.07;;
3726;SDS011;1879;45.876;12.300;2023-03-09T01:46:50;25.00;;;22.10;;
3726;SDS011;1879;45.876;12.300;2023-03-09T01:49:27;25.20;;;22.57;;
3726;SDS011;1879;45.876;12.300;2023-03-09T01:52:03;24.40;;;21.83;;
3726;SDS011;1879;45.876;12.300;2023-03-09T01:54:35;25.33;;;22.73;;
3726;SDS011;1879;45.876;12.300;2023-03-09T01:57:06;26.50;;;22.97;;
3726;SDS011;1879;45.876;12.300;2023-03-09T01:59:37;26.37;;;23.53;;
3726;SDS011;1879;45.876;12.300;2023-03-09T02:02:06;26.17;;;23.40;;
3726;SDS011;1879;45.876;12.300;2023-03-09T02:04:34;23.90;;;21.30;;
3726;SDS011;1879;45.876;12.300;2023-03-09T02:07:13;26.23;;;23.40;;
3726;SDS011;1879;45.876;12.300;2023-03-09T02:09:43;26.80;;;22.57;;
3726;SDS011;1879;45.876;12.300;2023-03-09T02:12:14;27.27;;;23.20;;
3726;SDS011;1879;45.876;12.300;2023-03-09T02:14:44;27.07;;;22.37;;
3726;SDS011;1879;45.876;12.300;2023-03-09T02:17:11;25.03;;;22.33;;
3726;SDS011;1879;45.876;12.300;2023-03-09T02:19:43;28.10;;;24.00;;
3726;SDS011;1879;45.876;12.300;2023-03-09T02:22:19;25.30;;;22.60;;
3726;SDS011;1879;45.876;12.300;2023-03-09T02:24:49;26.57;;;22.63;;
3726;SDS011;1879;45.876;12.300;2023-03-09T02:27:24;25.47;;;21.63;;
3726;SDS011;1879;45.876;12.300;2023-03-09T02:29:53;24.73;;;21.57;;
3726;SDS011;1879;45.876;12.300;2023-03-09T02:32:21;24.30;;;21.80;;
3726;SDS011;1879;45.876;12.300;2023-03-09T02:34:48;23.80;;;21.27;;
3726;SDS011;1879;45.876;12.300;2023-03-09T02:37:21;24.10;;;21.47;;
3726;SDS011;1879;45.876;12.300;2023-03-09T02:39:50;25.50;;;22.77;;
3726;SDS011;1879;45.876;12.300;2023-03-09T02:42:18;23.70;;;20.87;;
3726;SDS011;1879;45.876;12.300;2023-03-09T02:44:47;24.53;;;21.90;;
3726;SDS011;1879;45.876;12.300;2023-03-09T02:47:16;24.53;;;21.90;;
3726;SDS011;1879;45.876;12.300;2023-03-09T02:49:44;24.30;;;20.20;;
3726;SDS011;1879;45.876;12.300;2023-03-09T02:52:11;24.93;;;21.27;;
3726;SDS011;1879;45.876;12.300;2023-03-09T02:54:39;23.87;;;21.37;;
3726;SDS011;1879;45.876;12.300;2023-03-09T02:57:06;22.80;;;20.33;;
3726;SDS011;1879;45.876;12.300;2023-03-09T02:59:33;24.50;;;21.20;;
3726;SDS011;1879;45.876;12.300;2023-03-09T03:02:02;26.07;;;21.20;;
3726;SDS011;1879;45.876;12.300;2023-03-09T03:04:29;25.00;;;22.40;;
3726;SDS011;1879;45.876;12.300;2023-03-09T03:06:56;24.23;;;20.90;;
3726;SDS011;1879;45.876;12.300;2023-03-09T03:09:23;26.90;;;21.90;;
3726;SDS011;1879;45.876;12.300;2023-03-09T03:11:51;21.63;;;19.33;;
3726;SDS011;1879;45.876;12.300;2023-03-09T03:14:17;25.47;;;22.67;;
3726;SDS011;1879;45.876;12.300;2023-03-09T03:16:44;25.73;;;23.13;;
3726;SDS011;1879;45.876;12.300;2023-03-09T03:19:13;24.57;;;22.03;;
3726;SDS011;1879;45.876;12.300;2023-03-09T03:21:40;22.53;;;20.10;;
3726;SDS011;1879;45.876;12.300;2023-03-09T03:24:07;23.17;;;20.80;;
3726;SDS011;1879;45.876;12.300;2023-03-09T03:26:34;24.07;;;21.53;;
3726;SDS011;1879;45.876;12.300;2023-03-09T03:29:01;26.63;;;21.43;;
3726;SDS011;1879;45.876;12.300;2023-03-09T03:31:28;24.70;;;21.90;;
3726;SDS011;1879;45.876;12.300;2023-03-09T03:33:55;25.87;;;23.07;;
3726;SDS011;1879;45.876;12.300;2023-03-09T03:36:23;25.20;;;22.40;;
3726;SDS011;1879;45.876;12.300;2023-03-09T03:38:51;30.20;;;24.47;;
3726;SDS011;1879;45.876;12.300;2023-03-09T03:41:18;28.03;;;23.70;;
3726;SDS011;1879;45.876;12.300;2023-03-09T03:43:45;29.73;;;23.30;;
3726;SDS011;1879;45.876;12.300;2023-03-09T03:46:12;29.13;;;25.57;;
3726;SDS011;1879;45.876;12.300;2023-03-09T03:48:42;25.80;;;22.97;;
3726;SDS011;1879;45.876;12.300;2023-03-09T03:51:09;31.13;;;24.03;;
3726;SDS011;1879;45.876;12.300;2023-03-09T03:53:37;28.47;;;23.20;;
3726;SDS011;1879;45.876;12.300;2023-03-09T03:56:04;25.23;;;22.40;;
3726;SDS011;1879;45.876;12.300;2023-03-09T03:58:31;26.50;;;23.67;;
3726;SDS011;1879;45.876;12.300;2023-03-09T04:00:58;25.23;;;22.37;;
3726;SDS011;1879;45.876;12.300;2023-03-09T04:03:26;27.37;;;22.10;;
3726;SDS011;1879;45.876;12.300;2023-03-09T04:05:53;29.47;;;22.40;;
3726;SDS011;1879;45.876;12.300;2023-03-09T04:08:20;26.43;;;22.03;;
3726;SDS011;1879;45.876;12.300;2023-03-09T04:10:48;27.63;;;24.63;;
3726;SDS011;1879;45.876;12.300;2023-03-09T04:13:15;25.43;;;22.70;;
3726;SDS011;1879;45.876;12.300;2023-03-09T04:15:42;26.13;;;23.20;;
3726;SDS011;1879;45.876;12.300;2023-03-09T04:18:09;24.30;;;21.57;;
3726;SDS011;1879;45.876;12.300;2023-03-09T04:20:36;28.07;;;23.07;;
3726;SDS011;1879;45.876;12.300;2023-03-09T04:23:04;23.73;;;21.33;;
3726;SDS011;1879;45.876;12.300;2023-03-09T04:25:31;24.57;;;21.77;;
3726;SDS011;1879;45.876;12.300;2023-03-09T04:28:00;24.80;;;21.97;;
3726;SDS011;1879;45.876;12.300;2023-03-09T04:30:27;27.23;;;23.00;;
3726;SDS011;1879;45.876;12.300;2023-03-09T04:32:55;23.87;;;21.33;;
3726;SDS011;1879;45.876;12.300;2023-03-09T04:35:22;27.90;;;24.40;;
3726;SDS011;1879;45.876;12.300;2023-03-09T04:37:49;24.50;;;21.50;;
3726;SDS011;1879;45.876;12.300;2023-03-09T04:40:17;32.33;;;24.57;;
3726;SDS011;1879;45.876;12.300;2023-03-09T04:42:45;26.10;;;23.23;;
3726;SDS011;1879;45.876;12.300;2023-03-09T04:45:13;25.83;;;23.27;;
3726;SDS011;1879;45.876;12.300;2023-03-09T04:47:40;27.73;;;23.30;;
3726;SDS011;1879;45.876;12.300;2023-03-09T04:50:08;27.03;;;22.63;;
3726;SDS011;1879;45.876;12.300;2023-03-09T04:52:36;26.17;;;23.37;;
3726;SDS011;1879;45.876;12.300;2023-03-09T04:55:03;24.77;;;21.33;;
3726;SDS011;1879;45.876;12.300;2023-03-09T04:57:31;25.93;;;23.13;;
3726;SDS011;1879;45.876;12.300;2023-03-09T04:59:58;27.77;;;24.30;;
3726;SDS011;1879;45.876;12.300;2023-03-09T05:02:26;32.70;;;23.23;;
3726;SDS011;1879;45.876;12.300;2023-03-09T05:04:53;26.33;;;23.30;;
3726;SDS011;1879;45.876;12.300;2023-03-09T05:07:20;24.87;;;21.80;;
3726;SDS011;1879;45.876;12.300;2023-03-09T05:09:48;27.20;;;23.50;;
3726;SDS011;1879;45.876;12.300;2023-03-09T05:12:15;26.90;;;23.57;;
3726;SDS011;1879;45.876;12.300;2023-03-09T05:14:42;29.70;;;25.20;;
3726;SDS011;1879;45.876;12.300;2023-03-09T05:17:09;28.03;;;24.10;;
3726;SDS011;1879;45.876;12.300;2023-03-09T05:19:39;28.57;;;24.70;;
3726;SDS011;1879;45.876;12.300;2023-03-09T05:22:06;35.87;;;25.40;;
3726;SDS011;1879;45.876;12.300;2023-03-09T05:24:33;28.40;;;25.17;;
3726;SDS011;1879;45.876;12.300;2023-03-09T05:27:00;29.83;;;25.03;;
3726;SDS011;1879;45.876;12.300;2023-03-09T05:29:27;28.80;;;24.93;;
3726;SDS011;1879;45.876;12.300;2023-03-09T05:31:54;27.37;;;23.87;;
3726;SDS011;1879;45.876;12.300;2023-03-09T05:34:21;31.03;;;24.20;;
3726;SDS011;1879;45.876;12.300;2023-03-09T05:36:49;27.90;;;23.80;;
3726;SDS011;1879;45.876;12.300;2023-03-09T05:39:16;29.17;;;23.60;;
3726;SDS011;1879;45.876;12.300;2023-03-09T05:41:43;27.23;;;23.03;;
3726;SDS011;1879;45.876;12.300;2023-03-09T05:44:10;28.93;;;25.43;;
3726;SDS011;1879;45.876;12.300;2023-03-09T05:46:38;28.70;;;25.60;;
3726;SDS011;1879;45.876;12.300;2023-03-09T05:49:05;28.00;;;24.13;;
3726;SDS011;1879;45.876;12.300;2023-03-09T05:51:32;30.43;;;25.13;;
3726;SDS011;1879;45.876;12.300;2023-03-09T05:54:01;29.63;;;24.20;;
3726;SDS011;1879;45.876;12.300;2023-03-09T05:56:28;26.70;;;23.80;;
3726;SDS011;1879;45.876;12.300;2023-03-09T05:58:55;30.30;;;23.87;;
3726;SDS011;1879;45.876;12.300;2023-03-09T06:01:22;27.93;;;23.20;;
3726;SDS011;1879;45.876;12.300;2023-03-09T06:03:51;30.50;;;25.50;;
3726;SDS011;1879;45.876;12.300;2023-03-09T06:06:18;26.43;;;23.63;;
3726;SDS011;1879;45.876;12.300;2023-03-09T06:08:46;25.97;;;23.40;;
3726;SDS011;1879;45.876;12.300;2023-03-09T06:11:14;35.03;;;28.07;;
3726;SDS011;1879;45.876;12.300;2023-03-09T06:13:41;30.17;;;25.50;;
3726;SDS011;1879;45.876;12.300;2023-03-09T06:16:10;27.43;;;24.13;;
3726;SDS011;1879;45.876;12.300;2023-03-09T06:18:39;27.83;;;24.80;;
3726;SDS011;1879;45.876;12.300;2023-03-09T06:21:07;30.23;;;25.97;;
3726;SDS011;1879;45.876;12.300;2023-03-09T06:23:34;30.90;;;26.20;;
3726;SDS011;1879;45.876;12.300;2023-03-09T06:26:02;30.60;;;27.20;;
3726;SDS011;1879;45.876;12.300;2023-03-09T06:28:30;30.60;;;26.27;;
3726;SDS011;1879;45.876;12.300;2023-03-09T06:30:58;32.47;;;28.10;;
3726;SDS011;1879;45.876;12.300;2023-03-09T06:33:25;32.40;;;27.20;;
3726;SDS011;1879;45.876;12.300;2023-03-09T06:35:52;32.90;;;29.37;;
3726;SDS011;1879;45.876;12.300;2023-03-09T06:38:19;31.90;;;28.47;;
3726;SDS011;1879;45.876;12.300;2023-03-09T06:40:46;30.93;;;26.90;;
3726;SDS011;1879;45.876;12.300;2023-03-09T06:43:14;31.90;;;28.20;;
3726;SDS011;1879;45.876;12.300;2023-03-09T06:45:45;37.93;;;27.60;;
3726;SDS011;1879;45.876;12.300;2023-03-09T06:48:12;36.67;;;27.30;;
3726;SDS011;1879;45.876;12.300;2023-03-09T06:50:39;31.90;;;28.23;;
3726;SDS011;1879;45.876;12.300;2023-03-09T06:53:07;33.50;;;26.37;;
3726;SDS011;1879;45.876;12.300;2023-03-09T06:55:34;28.10;;;25.10;;
3726;SDS011;1879;45.876;12.300;2023-03-09T06:58:05;30.97;;;25.37;;
3726;SDS011;1879;45.876;12.300;2023-03-09T07:00:32;27.17;;;24.23;;
3726;SDS011;1879;45.876;12.300;2023-03-09T07:03:04;27.90;;;24.93;;
3726;SDS011;1879;45.876;12.300;2023-03-09T07:05:31;32.73;;;24.60;;
3726;SDS011;1879;45.876;12.300;2023-03-09T07:07:58;30.80;;;26.40;;
3726;SDS011;1879;45.876;12.300;2023-03-09T07:10:25;32.63;;;26.10;;
3726;SDS011;1879;45.876;12.300;2023-03-09T07:12:52;26.97;;;24.27;;
3726;SDS011;1879;45.876;12.300;2023-03-09T07:15:19;28.30;;;24.47;;
3726;SDS011;1879;45.876;12.300;2023-03-09T07:17:46;28.07;;;25.13;;
3726;SDS011;1879;45.876;12.300;2023-03-09T07:20:15;31.77;;;25.20;;
3726;SDS011;1879;45.876;12.300;2023-03-09T07:22:42;28.10;;;25.07;;
3726;SDS011;1879;45.876;12.300;2023-03-09T07:25:09;31.53;;;23.70;;
3726;SDS011;1879;45.876;12.300;2023-03-09T07:27:36;27.53;;;24.53;;
3726;SDS011;1879;45.876;12.300;2023-03-09T07:30:03;31.10;;;25.03;;
3726;SDS011;1879;45.876;12.300;2023-03-09T07:32:34;32.73;;;26.10;;
3726;SDS011;1879;45.876;12.300;2023-03-09T07:35:01;29.00;;;25.90;;
3726;SDS011;1879;45.876;12.300;2023-03-09T07:37:29;29.00;;;25.87;;
3726;SDS011;1879;45.876;12.300;2023-03-09T07:39:56;29.17;;;25.30;;
3726;SDS011;1879;45.876;12.300;2023-03-09T07:42:23;27.43;;;24.47;;
3726;SDS011;1879;45.876;12.300;2023-03-09T07:44:50;27.20;;;23.70;;
3726;SDS011;1879;45.876;12.300;2023-03-09T07:47:17;27.80;;;24.20;;
3726;SDS011;1879;45.876;12.300;2023-03-09T07:49:44;28.33;;;25.37;;
3726;SDS011;1879;45.876;12.300;2023-03-09T07:52:11;28.50;;;24.23;;
3726;SDS011;1879;45.876;12.300;2023-03-09T07:54:39;31.30;;;25.17;;
3726;SDS011;1879;45.876;12.300;2023-03-09T07:57:06;35.37;;;27.30;;
3726;SDS011;1879;45.876;12.300;2023-03-09T07:59:33;30.90;;;26.43;;
3726;SDS011;1879;45.876;12.300;2023-03-09T08:02:00;30.20;;;26.40;;
3726;SDS011;1879;45.876;12.300;2023-03-09T08:04:31;29.50;;;25.43;;
3726;SDS011;1879;45.876;12.300;2023-03-09T08:06:59;30.10;;;26.97;;
3726;SDS011;1879;45.876;12.300;2023-03-09T08:09:25;30.53;;;27.10;;
3726;SDS011;1879;45.876;12.300;2023-03-09T08:11:54;29.67;;;26.70;;
3726;SDS011;1879;45.876;12.300;2023-03-09T08:14:21;31.43;;;27.13;;
3726;SDS011;1879;45.876;12.300;2023-03-09T08:16:49;40.20;;;28.93;;
3726;SDS011;1879;45.876;12.300;2023-03-09T08:19:15;30.60;;;26.70;;
3726;SDS011;1879;45.876;12.300;2023-03-09T08:21:45;32.77;;;26.97;;
3726;SDS011;1879;45.876;12.300;2023-03-09T08:24:13;31.10;;;27.80;;
3726;SDS011;1879;45.876;12.300;2023-03-09T08:26:40;37.13;;;27.93;;
3726;SDS011;1879;45.876;12.300;2023-03-09T08:29:08;33.00;;;28.77;;
3726;SDS011;1879;45.876;12.300;2023-03-09T08:31:36;33.13;;;28.20;;
3726;SDS011;1879;45.876;12.300;2023-03-09T08:34:03;30.17;;;26.40;;
3726;SDS011;1879;45.876;12.300;2023-03-09T08:36:31;35.73;;;28.90;;
3726;SDS011;1879;45.876;12.300;2023-03-09T08:38:58;32.33;;;28.83;;
3726;SDS011;1879;45.876;12.300;2023-03-09T08:41:25;33.07;;;27.50;;
3726;SDS011;1879;45.876;12.300;2023-03-09T08:43:52;32.40;;;26.90;;
3726;SDS011;1879;45.876;12.300;2023-03-09T08:46:22;31.80;;;27.90;;
3726;SDS011;1879;45.876;12.300;2023-03-09T08:48:50;30.30;;;25.63;;
3726;SDS011;1879;45.876;12.300;2023-03-09T08:51:17;28.30;;;25.20;;
3726;SDS011;1879;45.876;12.300;2023-03-09T08:53:45;33.73;;;27.80;;
3726;SDS011;1879;45.876;12.300;2023-03-09T08:56:12;36.30;;;28.00;;
3726;SDS011;1879;45.876;12.300;2023-03-09T08:58:40;30.67;;;27.13;;
3726;SDS011;1879;45.876;12.300;2023-03-09T09:01:08;34.60;;;27.23;;
3726;SDS011;1879;45.876;12.300;2023-03-09T09:03:47;30.40;;;26.40;;
3726;SDS011;1879;45.876;12.300;2023-03-09T09:06:14;32.10;;;28.33;;
3726;SDS011;1879;45.876;12.300;2023-03-09T09:08:42;32.63;;;28.77;;
3726;SDS011;1879;45.876;12.300;2023-03-09T09:11:10;33.57;;;26.40;;
3726;SDS011;1879;45.876;12.300;2023-03-09T09:13:40;34.67;;;27.67;;
3726;SDS011;1879;45.876;12.300;2023-03-09T09:16:07;34.43;;;28.40;;
3726;SDS011;1879;45.876;12.300;2023-03-09T09:18:36;28.90;;;26.00;;
3726;SDS011;1879;45.876;12.300;2023-03-09T09:21:05;34.13;;;26.97;;
3726;SDS011;1879;45.876;12.300;2023-03-09T09:23:38;29.30;;;26.20;;
3726;SDS011;1879;45.876;12.300;2023-03-09T09:26:06;31.40;;;24.27;;
3726;SDS011;1879;45.876;12.300;2023-03-09T09:28:36;29.53;;;25.23;;
3726;SDS011;1879;45.876;12.300;2023-03-09T09:31:03;29.73;;;26.60;;
3726;SDS011;1879;45.876;12.300;2023-03-09T09:33:32;27.50;;;23.60;;
3726;SDS011;1879;45.876;12.300;2023-03-09T09:36:06;28.40;;;24.23;;
3726;SDS011;1879;45.876;12.300;2023-03-09T09:38:36;29.40;;;25.80;;
3726;SDS011;1879;45.876;12.300;2023-03-09T09:41:05;24.43;;;21.27;;
3726;SDS011;1879;45.876;12.300;2023-03-09T09:43:53;25.83;;;22.93;;
3726;SDS011;1879;45.876;12.300;2023-03-09T09:46:27;27.73;;;24.10;;
3726;SDS011;1879;45.876;12.300;2023-03-09T09:49:21;26.43;;;23.70;;
3726;SDS011;1879;45.876;12.300;2023-03-09T09:52:11;25.53;;;22.83;;
3726;SDS011;1879;45.876;12.300;2023-03-09T09:57:43;27.47;;;24.57;;
3726;SDS011;1879;45.876;12.300;2023-03-09T10:00:12;24.97;;;22.40;;
3726;SDS011;1879;45.876;12.300;2023-03-09T10:02:46;28.37;;;24.40;;
3726;SDS011;1879;45.876;12.300;2023-03-09T10:05:31;25.70;;;22.90;;
3726;SDS011;1879;45.876;12.300;2023-03-09T10:08:24;27.33;;;24.53;;
3726;SDS011;1879;45.876;12.300;2023-03-09T10:10:54;80.20;;;29.93;;
3726;SDS011;1879;45.876;12.300;2023-03-09T10:13:36;24.10;;;21.50;;
3726;SDS011;1879;45.876;12.300;2023-03-09T10:16:11;24.20;;;21.80;;
3726;SDS011;1879;45.876;12.300;2023-03-09T10:18:44;25.67;;;22.87;;
3726;SDS011;1879;45.876;12.300;2023-03-09T10:21:20;29.93;;;24.20;;
3726;SDS011;1879;45.876;12.300;2023-03-09T10:23:51;23.90;;;21.37;;
3726;SDS011;1879;45.876;12.300;2023-03-09T10:26:24;26.87;;;23.27;;
3726;SDS011;1879;45.876;12.300;2023-03-09T10:29:02;27.03;;;23.77;;
3726;SDS011;1879;45.876;12.300;2023-03-09T10:31:36;28.03;;;22.80;;
3726;SDS011;1879;45.876;12.300;2023-03-09T10:34:10;29.07;;;23.70;;
3726;SDS011;1879;45.876;12.300;2023-03-09T10:40:23;23.97;;;21.50;;
3726;SDS011;1879;45.876;12.300;2023-03-09T10:42:58;27.27;;;22.00;;
3726;SDS011;1879;45.876;12.300;2023-03-09T10:45:26;25.23;;;21.67;;
3726;SDS011;1879;45.876;12.300;2023-03-09T10:47:58;23.97;;;21.20;;
3726;SDS011;1879;45.876;12.300;2023-03-09T10:50:29;23.93;;;21.40;;
3726;SDS011;1879;45.876;12.300;2023-03-09T10:52:57;23.07;;;20.60;;
3726;SDS011;1879;45.876;12.300;2023-03-09T10:55:49;26.67;;;23.80;;
3726;SDS011;1879;45.876;12.300;2023-03-09T10:58:19;24.60;;;21.90;;
3726;SDS011;1879;45.876;12.300;2023-03-09T11:00:58;24.50;;;22.00;;
3726;SDS011;1879;45.876;12.300;2023-03-09T11:03:32;23.13;;;20.87;;
3726;SDS011;1879;45.876;12.300;2023-03-09T11:06:17;25.67;;;23.13;;
3726;SDS011;1879;45.876;12.300;2023-03-09T11:08:55;26.03;;;22.20;;
3726;SDS011;1879;45.876;12.300;2023-03-09T11:11:26;24.93;;;22.00;;
3726;SDS011;1879;45.876;12.300;2023-03-09T11:13:54;29.17;;;22.80;;
3726;SDS011;1879;45.876;12.300;2023-03-09T11:16:22;27.60;;;23.30;;
3726;SDS011;1879;45.876;12.300;2023-03-09T11:19:03;25.50;;;22.60;;
3726;SDS011;1879;45.876;12.300;2023-03-09T11:21:32;30.57;;;25.40;;
3726;SDS011;1879;45.876;12.300;2023-03-09T11:24:00;27.80;;;24.50;;
3726;SDS011;1879;45.876;12.300;2023-03-09T11:26:30;27.80;;;24.90;;
3726;SDS011;1879;45.876;12.300;2023-03-09T11:29:04;27.63;;;24.77;;
3726;SDS011;1879;45.876;12.300;2023-03-09T11:31:39;26.30;;;23.60;;
3726;SDS011;1879;45.876;12.300;2023-03-09T11:34:11;26.57;;;23.50;;
3726;SDS011;1879;45.876;12.300;2023-03-09T11:36:42;24.47;;;21.90;;
3726;SDS011;1879;45.876;12.300;2023-03-09T11:39:14;25.60;;;22.87;;
3726;SDS011;1879;45.876;12.300;2023-03-09T11:41:46;28.60;;;22.40;;
3726;SDS011;1879;45.876;12.300;2023-03-09T11:44:17;26.10;;;23.30;;
3726;SDS011;1879;45.876;12.300;2023-03-09T11:46:50;24.27;;;21.90;;
3726;SDS011;1879;45.876;12.300;2023-03-09T11:49:20;25.80;;;23.20;;
3726;SDS011;1879;45.876;12.300;2023-03-09T11:51:51;25.73;;;23.13;;
3726;SDS011;1879;45.876;12.300;2023-03-09T11:54:20;24.87;;;22.20;;
3726;SDS011;1879;45.876;12.300;2023-03-09T11:56:55;25.00;;;22.40;;
3726;SDS011;1879;45.876;12.300;2023-03-09T11:59:27;26.00;;;23.37;;
3726;SDS011;1879;45.876;12.300;2023-03-09T12:02:01;22.93;;;20.73;;
3726;SDS011;1879;45.876;12.300;2023-03-09T12:04:38;22.83;;;20.53;;
3726;SDS011;1879;45.876;12.300;2023-03-09T12:07:06;24.40;;;21.87;;
3726;SDS011;1879;45.876;12.300;2023-03-09T12:09:44;23.57;;;21.17;;
3726;SDS011;1879;45.876;12.300;2023-03-09T12:12:30;21.63;;;19.63;;
3726;SDS011;1879;45.876;12.300;2023-03-09T12:15:03;20.73;;;18.70;;
3726;SDS011;1879;45.876;12.300;2023-03-09T12:17:40;21.60;;;19.50;;
3726;SDS011;1879;45.876;12.300;2023-03-09T12:20:19;22.80;;;20.60;;
3726;SDS011;1879;45.876;12.300;2023-03-09T12:22:50;23.20;;;20.13;;
3726;SDS011;1879;45.876;12.300;2023-03-09T12:25:18;23.80;;;21.40;;
3726;SDS011;1879;45.876;12.300;2023-03-09T12:27:50;21.87;;;19.57;;
3726;SDS011;1879;45.876;12.300;2023-03-09T12:30:20;22.33;;;19.87;;
3726;SDS011;1879;45.876;12.300;2023-03-09T12:32:53;21.67;;;19.47;;
3726;SDS011;1879;45.876;12.300;2023-03-09T12:38:23;19.43;;;17.43;;
3726;SDS011;1879;45.876;12.300;2023-03-09T12:40:52;20.20;;;18.20;;
3726;SDS011;1879;45.876;12.300;2023-03-09T12:49:20;21.37;;;19.23;;
3726;SDS011;1879;45.876;12.300;2023-03-09T12:55:13;19.33;;;17.37;;
3726;SDS011;1879;45.876;12.300;2023-03-09T12:57:43;19.40;;;17.70;;
3726;SDS011;1879;45.876;12.300;2023-03-09T13:00:19;18.83;;;17.10;;
3726;SDS011;1879;45.876;12.300;2023-03-09T13:02:50;16.87;;;15.37;;
3726;SDS011;1879;45.876;12.300;2023-03-09T13:08:17;17.33;;;15.63;;
3726;SDS011;1879;45.876;12.300;2023-03-09T13:10:45;15.40;;;14.00;;
3726;SDS011;1879;45.876;12.300;2023-03-09T13:18:46;15.77;;;14.27;;
3726;SDS011;1879;45.876;12.300;2023-03-09T13:24:03;16.33;;;14.83;;
3726;SDS011;1879;45.876;12.300;2023-03-09T13:26:39;14.37;;;13.13;;
3726;SDS011;1879;45.876;12.300;2023-03-09T13:29:08;12.57;;;11.50;;
3726;SDS011;1879;45.876;12.300;2023-03-09T13:31:35;11.60;;;10.40;;
3726;SDS011;1879;45.876;12.300;2023-03-09T13:34:09;10.50;;;9.67;;
3726;SDS011;1879;45.876;12.300;2023-03-09T13:36:41;12.17;;;11.17;;
3726;SDS011;1879;45.876;12.300;2023-03-09T13:39:11;10.67;;;9.77;;
3726;SDS011;1879;45.876;12.300;2023-03-09T13:41:42;12.00;;;11.00;;
3726;SDS011;1879;45.876;12.300;2023-03-09T13:44:10;10.73;;;9.73;;
3726;SDS011;1879;45.876;12.300;2023-03-09T13:46:41;12.17;;;11.27;;
3726;SDS011;1879;45.876;12.300;2023-03-09T13:49:18;12.70;;;11.70;;
3726;SDS011;1879;45.876;12.300;2023-03-09T13:51:50;12.80;;;11.70;;
3726;SDS011;1879;45.876;12.300;2023-03-09T13:54:22;11.97;;;10.87;;
3726;SDS011;1879;45.876;12.300;2023-03-09T13:56:56;11.63;;;10.73;;
3726;SDS011;1879;45.876;12.300;2023-03-09T13:59:24;14.07;;;12.87;;
3726;SDS011;1879;45.876;12.300;2023-03-09T14:02:00;11.80;;;10.70;;
3726;SDS011;1879;45.876;12.300;2023-03-09T14:04:29;10.97;;;10.07;;
3726;SDS011;1879;45.876;12.300;2023-03-09T14:06:57;12.20;;;11.20;;
3726;SDS011;1879;45.876;12.300;2023-03-09T14:09:26;12.00;;;11.00;;
3726;SDS011;1879;45.876;12.300;2023-03-09T14:11:57;13.00;;;11.87;;
3726;SDS011;1879;45.876;12.300;2023-03-09T14:14:24;12.07;;;10.73;;
3726;SDS011;1879;45.876;12.300;2023-03-09T14:16:52;11.23;;;10.23;;
3726;SDS011;1879;45.876;12.300;2023-03-09T14:19:21;12.17;;;11.00;;
3726;SDS011;1879;45.876;12.300;2023-03-09T14:21:54;15.50;;;12.50;;
3726;SDS011;1879;45.876;12.300;2023-03-09T14:24:23;17.83;;;11.90;;
3726;SDS011;1879;45.876;12.300;2023-03-09T14:26:52;12.60;;;11.43;;
3726;SDS011;1879;45.876;12.300;2023-03-09T14:29:20;15.83;;;10.73;;
3726;SDS011;1879;45.876;12.300;2023-03-09T14:34:47;12.53;;;11.30;;
3726;SDS011;1879;45.876;12.300;2023-03-09T14:37:19;11.97;;;10.77;;
3726;SDS011;1879;45.876;12.300;2023-03-09T14:39:49;12.00;;;10.53;;
3726;SDS011;1879;45.876;12.300;2023-03-09T14:42:19;11.23;;;10.13;;
3726;SDS011;1879;45.876;12.300;2023-03-09T14:44:59;11.30;;;10.20;;
3726;SDS011;1879;45.876;12.300;2023-03-09T14:47:34;11.17;;;10.00;;
3726;SDS011;1879;45.876;12.300;2023-03-09T14:50:02;11.97;;;10.87;;
3726;SDS011;1879;45.876;12.300;2023-03-09T14:52:32;10.67;;;9.77;;
3726;SDS011;1879;45.876;12.300;2023-03-09T14:55:02;12.83;;;10.97;;
3726;SDS011;1879;45.876;12.300;2023-03-09T14:57:29;11.67;;;10.47;;
3726;SDS011;1879;45.876;12.300;2023-03-09T14:59:56;11.80;;;10.07;;
3726;SDS011;1879;45.876;12.300;2023-03-09T15:02:23;11.13;;;10.00;;
3726;SDS011;1879;45.876;12.300;2023-03-09T15:04:50;11.27;;;10.17;;
3726;SDS011;1879;45.876;12.300;2023-03-09T15:07:17;11.70;;;10.40;;
3726;SDS011;1879;45.876;12.300;2023-03-09T15:09:45;11.40;;;9.93;;
3726;SDS011;1879;45.876;12.300;2023-03-09T15:12:14;12.27;;;10.97;;
3726;SDS011;1879;45.876;12.300;2023-03-09T15:14:44;11.47;;;10.37;;
3726;SDS011;1879;45.876;12.300;2023-03-09T15:17:13;10.60;;;9.60;;
3726;SDS011;1879;45.876;12.300;2023-03-09T15:19:42;11.63;;;10.10;;
3726;SDS011;1879;45.876;12.300;2023-03-09T15:22:10;15.57;;;11.17;;